sensor_id;sensor_type;location;lat;lon;timestamp;pressure;altitude;pressure_sealevel;temperature;humidity
3122;BME280;1571;52.524;14.104;2023-06-14T00:00:17;101229.94;;;11.92;91.68
3122;BME280;1571;52.524;14.104;2023-06-14T00:02:45;101236.38;;;12.02;91.85
3122;BME280;1571;52.524;14.104;2023-06-14T00:05:14;101236.38;;;12.02;91.90
3122;BME280;1571;52.524;14.104;2023-06-14T00:07:42;101232.97;;;12.00;91.93
3122;BME280;1571;52.524;14.104;2023-06-14T00:10:11;101231.97;;;11.86;92.56
3122;BME280;1571;52.524;14.104;2023-06-14T00:12:40;101231.38;;;11.81;93.07
3122;BME280;1571;52.524;14.104;2023-06-14T00:15:09;101223.06;;;11.87;93.35
3122;BME280;1571;52.524;14.104;2023-06-14T00:17:39;101226.13;;;11.96;93.51
3122;BME280;1571;52.524;14.104;2023-06-14T00:20:08;101222.16;;;12.03;93.34
3122;BME280;1571;52.524;14.104;2023-06-14T00:22:37;101223.84;;;11.90;93.31
3122;BME280;1571;52.524;14.104;2023-06-14T00:25:06;101230.25;;;11.85;93.79
3122;BME280;1571;52.524;14.104;2023-06-14T00:27:55;101223.00;;;11.89;94.05
3122;BME280;1571;52.524;14.104;2023-06-14T00:30:24;101222.03;;;11.90;94.52
3122;BME280;1571;52.524;14.104;2023-06-14T00:32:53;101223.84;;;11.90;94.36
3122;BME280;1571;52.524;14.104;2023-06-14T00:35:24;101229.09;;;11.91;94.57
3122;BME280;1571;52.524;14.104;2023-06-14T00:37:53;101229.69;;;11.80;94.84
3122;BME280;1571;52.524;14.104;2023-06-14T00:40:22;101224.06;;;12.01;95.02
3122;BME280;1571;52.524;14.104;2023-06-14T00:42:50;101221.56;;;11.98;94.60
3122;BME280;1571;52.524;14.104;2023-06-14T00:45:18;101209.41;;;11.94;94.98
3122;BME280;1571;52.524;14.104;2023-06-14T00:47:47;101224.16;;;11.83;94.86
3122;BME280;1571;52.524;14.104;2023-06-14T00:50:17;101229.06;;;11.61;95.46
3122;BME280;1571;52.524;14.104;2023-06-14T00:52:46;101231.84;;;11.74;95.36
3122;BME280;1571;52.524;14.104;2023-06-14T00:55:14;101228.16;;;11.76;95.31
3122;BME280;1571;52.524;14.104;2023-06-14T00:57:43;101231.28;;;11.69;95.56
3122;BME280;1571;52.524;14.104;2023-06-14T01:00:13;101232.06;;;11.55;95.35
3122;BME280;1571;52.524;14.104;2023-06-14T01:02:42;101241.84;;;11.54;95.18
3122;BME280;1571;52.524;14.104;2023-06-14T01:05:11;101237.22;;;11.58;95.42
3122;BME280;1571;52.524;14.104;2023-06-14T01:07:52;101241.19;;;11.51;96.22
3122;BME280;1571;52.524;14.104;2023-06-14T01:10:33;101241.94;;;11.53;96.16
3122;BME280;1571;52.524;14.104;2023-06-14T01:13:08;101242.91;;;11.52;96.66
3122;BME280;1571;52.524;14.104;2023-06-14T01:15:39;101239.56;;;11.32;97.16
3122;BME280;1571;52.524;14.104;2023-06-14T01:18:09;101241.19;;;11.51;97.23
3122;BME280;1571;52.524;14.104;2023-06-14T01:20:46;101242.84;;;11.37;97.02
3122;BME280;1571;52.524;14.104;2023-06-14T01:23:19;101239.72;;;11.15;98.06
3122;BME280;1571;52.524;14.104;2023-06-14T01:25:49;101232.47;;;11.33;98.23
3122;BME280;1571;52.524;14.104;2023-06-14T01:28:21;101230.69;;;11.33;98.36
3122;BME280;1571;52.524;14.104;2023-06-14T01:30:51;101234.88;;;11.37;98.23
3122;BME280;1571;52.524;14.104;2023-06-14T01:33:21;101235.22;;;11.31;98.31
3122;BME280;1571;52.524;14.104;2023-06-14T01:35:51;101240.00;;;11.40;97.77
3122;BME280;1571;52.524;14.104;2023-06-14T01:38:22;101234.91;;;11.21;98.02
3122;BME280;1571;52.524;14.104;2023-06-14T01:40:53;101234.53;;;11.12;98.20
3122;BME280;1571;52.524;14.104;2023-06-14T01:43:25;101243.81;;;11.04;99.11
3122;BME280;1571;52.524;14.104;2023-06-14T01:45:56;101236.44;;;11.10;99.51
3122;BME280;1571;52.524;14.104;2023-06-14T01:48:27;101235.06;;;11.02;99.15
3122;BME280;1571;52.524;14.104;2023-06-14T01:50:55;101234.03;;;10.89;99.80
3122;BME280;1571;52.524;14.104;2023-06-14T01:53:25;101238.19;;;10.95;100.00
3122;BME280;1571;52.524;14.104;2023-06-14T01:55:53;101231.06;;;10.95;100.00
3122;BME280;1571;52.524;14.104;2023-06-14T01:58:22;101224.38;;;11.04;100.00
3122;BME280;1571;52.524;14.104;2023-06-14T02:00:51;101236.44;;;10.94;100.00
3122;BME280;1571;52.524;14.104;2023-06-14T02:03:22;101234.47;;;10.97;100.00
3122;BME280;1571;52.524;14.104;2023-06-14T02:05:52;101232.00;;;10.94;100.00
3122;BME280;1571;52.524;14.104;2023-06-14T02:08:21;101232.50;;;11.01;100.00
3122;BME280;1571;52.524;14.104;2023-06-14T02:10:52;101232.00;;;10.94;99.71
3122;BME280;1571;52.524;14.104;2023-06-14T02:13:21;101236.13;;;10.84;99.72
3122;BME280;1571;52.524;14.104;2023-06-14T02:15:50;101231.66;;;10.84;99.88
3122;BME280;1571;52.524;14.104;2023-06-14T02:18:22;101235.31;;;10.66;100.00
3122;BME280;1571;52.524;14.104;2023-06-14T02:20:51;101235.06;;;10.71;100.00
3122;BME280;1571;52.524;14.104;2023-06-14T02:23:19;101234.72;;;10.61;100.00
3122;BME280;1571;52.524;14.104;2023-06-14T02:25:48;101235.91;;;10.71;100.00
3122;BME280;1571;52.524;14.104;2023-06-14T02:28:17;101237.81;;;10.85;100.00
3122;BME280;1571;52.524;14.104;2023-06-14T02:30:46;101233.28;;;10.87;100.00
3122;BME280;1571;52.524;14.104;2023-06-14T02:33:14;101231.13;;;10.94;100.00
3122;BME280;1571;52.524;14.104;2023-06-14T02:35:42;101235.78;;;10.90;100.00
3122;BME280;1571;52.524;14.104;2023-06-14T02:38:11;101238.84;;;10.98;100.00
3122;BME280;1571;52.524;14.104;2023-06-14T02:40:40;101234.03;;;10.89;100.00
3122;BME280;1571;52.524;14.104;2023-06-14T02:43:09;101232.25;;;10.90;100.00
3122;BME280;1571;52.524;14.104;2023-06-14T02:45:40;101229.75;;;11.18;100.00
3122;BME280;1571;52.524;14.104;2023-06-14T02:48:08;101236.53;;;11.08;100.00
3122;BME280;1571;52.524;14.104;2023-06-14T02:50:37;101229.59;;;11.06;100.00
3122;BME280;1571;52.524;14.104;2023-06-14T02:53:05;101236.34;;;11.11;100.00
3122;BME280;1571;52.524;14.104;2023-06-14T02:55:34;101238.44;;;11.06;100.00
3122;BME280;1571;52.524;14.104;2023-06-14T02:58:07;101239.97;;;10.94;100.00
3122;BME280;1571;52.524;14.104;2023-06-14T03:00:36;101247.25;;;11.07;100.00
3122;BME280;1571;52.524;14.104;2023-06-14T03:03:07;101232.84;;;11.11;100.00
3122;BME280;1571;52.524;14.104;2023-06-14T03:05:47;101238.41;;;11.22;100.00
3122;BME280;1571;52.524;14.104;2023-06-14T03:08:20;101230.59;;;11.19;100.00
3122;BME280;1571;52.524;14.104;2023-06-14T03:10:55;101235.91;;;11.03;100.00
3122;BME280;1571;52.524;14.104;2023-06-14T03:13:25;101231.34;;;11.37;100.00
3122;BME280;1571;52.524;14.104;2023-06-14T03:15:54;101229.38;;;11.40;100.00
3122;BME280;1571;52.524;14.104;2023-06-14T03:18:25;101231.59;;;11.32;100.00
3122;BME280;1571;52.524;14.104;2023-06-14T03:20:56;101235.03;;;11.34;100.00
3122;BME280;1571;52.524;14.104;2023-06-14T03:23:27;101237.38;;;11.55;100.00
3122;BME280;1571;52.524;14.104;2023-06-14T03:25:55;101237.34;;;11.40;100.00
3122;BME280;1571;52.524;14.104;2023-06-14T03:28:24;101245.50;;;11.67;100.00
3122;BME280;1571;52.524;14.104;2023-06-14T03:30:54;101241.22;;;11.65;100.00
3122;BME280;1571;52.524;14.104;2023-06-14T03:33:24;101237.66;;;11.80;100.00
3122;BME280;1571;52.524;14.104;2023-06-14T03:35:54;101247.94;;;11.56;100.00
3122;BME280;1571;52.524;14.104;2023-06-14T03:38:23;101240.81;;;11.57;100.00
3122;BME280;1571;52.524;14.104;2023-06-14T03:40:52;101249.41;;;11.62;100.00
3122;BME280;1571;52.524;14.104;2023-06-14T03:43:20;101248.56;;;11.45;100.00
3122;BME280;1571;52.524;14.104;2023-06-14T03:45:49;101247.47;;;11.64;100.00
3122;BME280;1571;52.524;14.104;2023-06-14T03:48:19;101248.47;;;11.77;100.00
3122;BME280;1571;52.524;14.104;2023-06-14T03:50:48;101249.34;;;11.78;100.00
3122;BME280;1571;52.524;14.104;2023-06-14T03:53:17;101254.03;;;11.88;100.00
3122;BME280;1571;52.524;14.104;2023-06-14T03:55:49;101242.59;;;11.86;100.00
3122;BME280;1571;52.524;14.104;2023-06-14T03:58:26;101247.53;;;12.08;100.00
3122;BME280;1571;52.524;14.104;2023-06-14T04:00:55;101251.31;;;12.04;100.00
3122;BME280;1571;52.524;14.104;2023-06-14T04:03:24;101251.06;;;12.23;100.00
3122;BME280;1571;52.524;14.104;2023-06-14T04:05:59;101256.03;;;12.29;100.00
3122;BME280;1571;52.524;14.104;2023-06-14T04:08:27;101260.94;;;12.36;100.00
3122;BME280;1571;52.524;14.104;2023-06-14T04:10:57;101260.75;;;12.53;99.11
3122;BME280;1571;52.524;14.104;2023-06-14T04:13:26;101259.50;;;12.73;98.11
3122;BME280;1571;52.524;14.104;2023-06-14T04:15:54;101265.53;;;12.77;97.27
3122;BME280;1571;52.524;14.104;2023-06-14T04:18:29;101256.97;;;12.57;97.33
3122;BME280;1571;52.524;14.104;2023-06-14T04:20:58;101260.19;;;12.48;98.15
3122;BME280;1571;52.524;14.104;2023-06-14T04:23:28;101275.34;;;12.47;98.47
3122;BME280;1571;52.524;14.104;2023-06-14T04:25:57;101275.59;;;12.71;98.48
3122;BME280;1571;52.524;14.104;2023-06-14T04:28:29;101271.31;;;12.40;98.69
3122;BME280;1571;52.524;14.104;2023-06-14T04:31:00;101276.16;;;12.62;98.94
3122;BME280;1571;52.524;14.104;2023-06-14T04:33:31;101269.69;;;12.66;98.79
3122;BME280;1571;52.524;14.104;2023-06-14T04:36:01;101270.63;;;12.80;98.52
3122;BME280;1571;52.524;14.104;2023-06-14T04:38:31;101271.03;;;12.74;98.59
3122;BME280;1571;52.524;14.104;2023-06-14T04:41:01;101272.75;;;12.75;98.84
3122;BME280;1571;52.524;14.104;2023-06-14T04:43:31;101273.22;;;12.81;98.90
3122;BME280;1571;52.524;14.104;2023-06-14T04:46:06;101272.34;;;12.81;98.17
3122;BME280;1571;52.524;14.104;2023-06-14T04:48:38;101275.13;;;12.79;98.80
3122;BME280;1571;52.524;14.104;2023-06-14T04:51:11;101273.88;;;12.85;98.86
3122;BME280;1571;52.524;14.104;2023-06-14T04:53:40;101267.22;;;12.49;98.83
3122;BME280;1571;52.524;14.104;2023-06-14T04:56:08;101271.97;;;12.58;100.00
3122;BME280;1571;52.524;14.104;2023-06-14T04:58:37;101271.50;;;12.80;99.65
3122;BME280;1571;52.524;14.104;2023-06-14T05:01:05;101277.19;;;12.88;99.33
3122;BME280;1571;52.524;14.104;2023-06-14T05:03:36;101272.38;;;13.08;98.74
3122;BME280;1571;52.524;14.104;2023-06-14T05:06:05;101270.84;;;12.77;99.06
3122;BME280;1571;52.524;14.104;2023-06-14T05:08:35;101271.44;;;13.09;98.92
3122;BME280;1571;52.524;14.104;2023-06-14T05:11:03;101271.41;;;12.67;99.58
3122;BME280;1571;52.524;14.104;2023-06-14T05:13:32;101270.84;;;12.62;100.00
3122;BME280;1571;52.524;14.104;2023-06-14T05:16:01;101273.88;;;12.56;100.00
3122;BME280;1571;52.524;14.104;2023-06-14T05:18:30;101279.75;;;12.90;100.00
3122;BME280;1571;52.524;14.104;2023-06-14T05:21:01;101278.63;;;12.80;99.86
3122;BME280;1571;52.524;14.104;2023-06-14T05:23:30;101278.25;;;12.86;99.86
3122;BME280;1571;52.524;14.104;2023-06-14T05:26:00;101274.88;;;13.11;99.61
3122;BME280;1571;52.524;14.104;2023-06-14T05:28:30;101280.34;;;12.95;99.86
3122;BME280;1571;52.524;14.104;2023-06-14T05:30:58;101280.38;;;13.08;99.18
3122;BME280;1571;52.524;14.104;2023-06-14T05:33:27;101285.31;;;13.14;98.79
3122;BME280;1571;52.524;14.104;2023-06-14T05:35:55;101284.69;;;13.10;99.04
3122;BME280;1571;52.524;14.104;2023-06-14T05:38:24;101283.16;;;13.06;99.19
3122;BME280;1571;52.524;14.104;2023-06-14T05:40:52;101298.75;;;13.12;99.09
3122;BME280;1571;52.524;14.104;2023-06-14T05:43:22;101295.13;;;13.13;99.09
3122;BME280;1571;52.524;14.104;2023-06-14T05:45:50;101290.72;;;13.27;98.59
3122;BME280;1571;52.524;14.104;2023-06-14T05:48:19;101293.88;;;13.19;99.09
3122;BME280;1571;52.524;14.104;2023-06-14T05:50:47;101288.97;;;12.99;99.54
3122;BME280;1571;52.524;14.104;2023-06-14T05:53:15;101287.56;;;13.35;99.67
3122;BME280;1571;52.524;14.104;2023-06-14T05:55:44;101294.50;;;13.51;98.59
3122;BME280;1571;52.524;14.104;2023-06-14T05:58:12;101288.28;;;13.09;99.09
3122;BME280;1571;52.524;14.104;2023-06-14T06:00:42;101284.81;;;13.36;99.30
3122;BME280;1571;52.524;14.104;2023-06-14T06:03:10;101292.84;;;13.22;99.33
3122;BME280;1571;52.524;14.104;2023-06-14T06:05:40;101282.06;;;13.38;99.27
3122;BME280;1571;52.524;14.104;2023-06-14T06:08:08;101284.94;;;13.74;98.27
3122;BME280;1571;52.524;14.104;2023-06-14T06:10:36;101284.16;;;14.12;96.49
3122;BME280;1571;52.524;14.104;2023-06-14T06:13:05;101284.16;;;14.12;95.43
3122;BME280;1571;52.524;14.104;2023-06-14T06:15:35;101280.13;;;14.32;94.34
3122;BME280;1571;52.524;14.104;2023-06-14T06:18:05;101279.25;;;14.45;93.44
3122;BME280;1571;52.524;14.104;2023-06-14T06:20:33;101280.50;;;14.52;92.22
3122;BME280;1571;52.524;14.104;2023-06-14T06:23:03;101269.22;;;14.61;90.92
3122;BME280;1571;52.524;14.104;2023-06-14T06:25:31;101278.72;;;14.27;91.39
3122;BME280;1571;52.524;14.104;2023-06-14T06:28:00;101282.16;;;14.54;91.12
3122;BME280;1571;52.524;14.104;2023-06-14T06:30:28;101286.09;;;14.49;90.79
3122;BME280;1571;52.524;14.104;2023-06-14T06:32:57;101281.56;;;14.88;90.05
3122;BME280;1571;52.524;14.104;2023-06-14T06:35:27;101289.47;;;15.02;88.62
3122;BME280;1571;52.524;14.104;2023-06-14T06:37:57;101288.94;;;15.34;87.75
3122;BME280;1571;52.524;14.104;2023-06-14T06:40:25;101292.34;;;15.36;86.33
3122;BME280;1571;52.524;14.104;2023-06-14T06:42:53;101299.28;;;15.38;85.65
3122;BME280;1571;52.524;14.104;2023-06-14T06:45:21;101300.53;;;15.70;84.15
3122;BME280;1571;52.524;14.104;2023-06-14T06:47:51;101305.75;;;15.95;83.91
3122;BME280;1571;52.524;14.104;2023-06-14T06:50:20;101305.19;;;15.55;82.89
3122;BME280;1571;52.524;14.104;2023-06-14T06:52:51;101300.63;;;15.44;83.19
3122;BME280;1571;52.524;14.104;2023-06-14T06:55:20;101306.88;;;15.45;83.82
3122;BME280;1571;52.524;14.104;2023-06-14T06:57:48;101303.75;;;15.62;84.30
3122;BME280;1571;52.524;14.104;2023-06-14T07:00:19;101299.59;;;15.71;83.32
3122;BME280;1571;52.524;14.104;2023-06-14T07:02:48;101318.53;;;15.44;83.06
3122;BME280;1571;52.524;14.104;2023-06-14T07:05:16;101313.75;;;15.84;83.04
3122;BME280;1571;52.524;14.104;2023-06-14T07:07:45;101310.34;;;15.82;82.35
3122;BME280;1571;52.524;14.104;2023-06-14T07:10:15;101326.19;;;15.48;83.48
3122;BME280;1571;52.524;14.104;2023-06-14T07:12:43;101326.66;;;15.66;83.84
3122;BME280;1571;52.524;14.104;2023-06-14T07:15:12;101325.13;;;15.51;83.27
3122;BME280;1571;52.524;14.104;2023-06-14T07:17:41;101334.19;;;15.61;83.05
3122;BME280;1571;52.524;14.104;2023-06-14T07:20:10;101330.94;;;15.69;83.00
3122;BME280;1571;52.524;14.104;2023-06-14T07:22:41;101326.13;;;15.74;82.65
3122;BME280;1571;52.524;14.104;2023-06-14T07:25:11;101335.72;;;15.52;83.48
3122;BME280;1571;52.524;14.104;2023-06-14T07:27:43;101331.06;;;15.91;82.31
3122;BME280;1571;52.524;14.104;2023-06-14T07:30:12;101330.56;;;16.21;82.17
3122;BME280;1571;52.524;14.104;2023-06-14T07:32:41;101331.69;;;16.30;80.71
3122;BME280;1571;52.524;14.104;2023-06-14T07:35:10;101341.25;;;16.10;79.72
3122;BME280;1571;52.524;14.104;2023-06-14T07:37:38;101341.06;;;16.36;80.97
3122;BME280;1571;52.524;14.104;2023-06-14T07:40:07;101339.00;;;16.39;80.75
3122;BME280;1571;52.524;14.104;2023-06-14T07:42:37;101339.50;;;16.44;79.83
3122;BME280;1571;52.524;14.104;2023-06-14T07:45:08;101337.53;;;16.47;80.40
3122;BME280;1571;52.524;14.104;2023-06-14T07:47:36;101337.84;;;16.19;80.37
3122;BME280;1571;52.524;14.104;2023-06-14T07:50:05;101340.34;;;16.45;80.74
3122;BME280;1571;52.524;14.104;2023-06-14T07:52:36;101336.09;;;16.54;80.47
3122;BME280;1571;52.524;14.104;2023-06-14T07:55:05;101338.47;;;16.34;79.83
3122;BME280;1571;52.524;14.104;2023-06-14T07:57:33;101340.13;;;16.01;80.76
3122;BME280;1571;52.524;14.104;2023-06-14T08:00:02;101344.72;;;15.99;81.04
3122;BME280;1571;52.524;14.104;2023-06-14T08:02:39;101343.03;;;16.10;80.85
3122;BME280;1571;52.524;14.104;2023-06-14T08:05:09;101334.72;;;16.37;81.01
3122;BME280;1571;52.524;14.104;2023-06-14T08:07:37;101341.72;;;16.15;80.80
3122;BME280;1571;52.524;14.104;2023-06-14T08:10:07;101342.75;;;16.37;81.05
3122;BME280;1571;52.524;14.104;2023-06-14T08:12:36;101341.84;;;16.14;80.01
3122;BME280;1571;52.524;14.104;2023-06-14T08:15:05;101353.84;;;16.43;79.75
3122;BME280;1571;52.524;14.104;2023-06-14T08:17:43;101340.13;;;16.71;78.90
3122;BME280;1571;52.524;14.104;2023-06-14T08:20:12;101340.00;;;16.61;78.75
3122;BME280;1571;52.524;14.104;2023-06-14T08:22:44;101340.72;;;16.52;78.94
3122;BME280;1571;52.524;14.104;2023-06-14T08:25:13;101340.03;;;17.06;77.89
3122;BME280;1571;52.524;14.104;2023-06-14T08:27:42;101344.56;;;16.94;77.35
3122;BME280;1571;52.524;14.104;2023-06-14T08:30:11;101347.94;;;17.30;77.20
3122;BME280;1571;52.524;14.104;2023-06-14T08:32:40;101341.09;;;17.37;74.63
3122;BME280;1571;52.524;14.104;2023-06-14T08:35:10;101344.88;;;17.35;74.40
3122;BME280;1571;52.524;14.104;2023-06-14T08:37:40;101344.13;;;17.33;74.16
3122;BME280;1571;52.524;14.104;2023-06-14T08:40:18;101344.16;;;17.21;74.49
3122;BME280;1571;52.524;14.104;2023-06-14T08:42:51;101350.25;;;17.35;74.39
3122;BME280;1571;52.524;14.104;2023-06-14T08:45:20;101361.75;;;17.03;75.15
3122;BME280;1571;52.524;14.104;2023-06-14T08:47:53;101350.94;;;17.48;74.94
3122;BME280;1571;52.524;14.104;2023-06-14T08:50:27;101351.19;;;17.34;71.61
3122;BME280;1571;52.524;14.104;2023-06-14T08:52:59;101349.75;;;17.41;72.03
3122;BME280;1571;52.524;14.104;2023-06-14T08:55:31;101354.41;;;17.27;71.88
3122;BME280;1571;52.524;14.104;2023-06-14T08:58:04;101352.69;;;17.26;72.19
3122;BME280;1571;52.524;14.104;2023-06-14T09:00:32;101356.91;;;17.52;71.64
3122;BME280;1571;52.524;14.104;2023-06-14T09:03:01;101371.00;;;17.21;71.83
3122;BME280;1571;52.524;14.104;2023-06-14T09:05:32;101368.88;;;17.47;71.74
3122;BME280;1571;52.524;14.104;2023-06-14T09:08:01;101372.81;;;17.32;72.11
3122;BME280;1571;52.524;14.104;2023-06-14T09:10:33;101370.19;;;17.53;71.57
3122;BME280;1571;52.524;14.104;2023-06-14T09:13:02;101370.97;;;17.33;72.22
3122;BME280;1571;52.524;14.104;2023-06-14T09:15:31;101379.41;;;17.05;73.31
3122;BME280;1571;52.524;14.104;2023-06-14T09:18:01;101375.88;;;17.05;72.99
3122;BME280;1571;52.524;14.104;2023-06-14T09:20:32;101368.16;;;17.45;72.66
3122;BME280;1571;52.524;14.104;2023-06-14T09:23:00;101369.66;;;17.82;72.05
3122;BME280;1571;52.524;14.104;2023-06-14T09:25:29;101365.41;;;17.68;71.70
3122;BME280;1571;52.524;14.104;2023-06-14T09:28:06;101368.28;;;17.33;71.93
3122;BME280;1571;52.524;14.104;2023-06-14T09:30:36;101367.16;;;17.46;71.66
3122;BME280;1571;52.524;14.104;2023-06-14T09:33:05;101367.50;;;17.64;71.80
3122;BME280;1571;52.524;14.104;2023-06-14T09:35:35;101373.63;;;17.55;71.99
3122;BME280;1571;52.524;14.104;2023-06-14T09:38:03;101382.19;;;17.38;71.98
3122;BME280;1571;52.524;14.104;2023-06-14T09:40:35;101382.69;;;17.43;72.55
3122;BME280;1571;52.524;14.104;2023-06-14T09:43:07;101382.09;;;17.05;73.15
3122;BME280;1571;52.524;14.104;2023-06-14T09:45:38;101380.03;;;17.20;72.83
3122;BME280;1571;52.524;14.104;2023-06-14T09:48:08;101379.88;;;17.11;73.02
3122;BME280;1571;52.524;14.104;2023-06-14T09:50:39;101370.50;;;17.27;72.60
3122;BME280;1571;52.524;14.104;2023-06-14T09:53:10;101372.09;;;17.30;72.17
3122;BME280;1571;52.524;14.104;2023-06-14T09:55:41;101382.53;;;17.44;72.37
3122;BME280;1571;52.524;14.104;2023-06-14T09:58:10;101373.53;;;17.45;72.16
3122;BME280;1571;52.524;14.104;2023-06-14T10:00:39;101371.69;;;17.46;71.86
3122;BME280;1571;52.524;14.104;2023-06-14T10:03:12;101377.50;;;17.62;72.36
3122;BME280;1571;52.524;14.104;2023-06-14T10:05:45;101371.94;;;17.54;71.39
3122;BME280;1571;52.524;14.104;2023-06-14T10:08:14;101374.84;;;17.51;70.81
3122;BME280;1571;52.524;14.104;2023-06-14T10:10:44;101375.34;;;17.45;71.18
3122;BME280;1571;52.524;14.104;2023-06-14T10:13:13;101375.91;;;17.60;70.47
3122;BME280;1571;52.524;14.104;2023-06-14T10:15:54;101373.78;;;17.97;70.10
3122;BME280;1571;52.524;14.104;2023-06-14T10:18:31;101362.44;;;18.15;68.25
3122;BME280;1571;52.524;14.104;2023-06-14T10:21:08;101357.66;;;18.39;68.35
3122;BME280;1571;52.524;14.104;2023-06-14T10:23:42;101346.88;;;18.81;66.56
3122;BME280;1571;52.524;14.104;2023-06-14T10:26:18;101348.47;;;18.63;66.52
3122;BME280;1571;52.524;14.104;2023-06-14T10:28:59;101343.56;;;18.99;66.25
3122;BME280;1571;52.524;14.104;2023-06-14T10:31:41;101336.63;;;18.96;65.57
3122;BME280;1571;52.524;14.104;2023-06-14T10:34:11;101346.25;;;18.26;66.89
3122;BME280;1571;52.524;14.104;2023-06-14T10:36:42;101337.75;;;18.72;67.08
3122;BME280;1571;52.524;14.104;2023-06-14T10:39:15;101345.66;;;18.43;66.33
3122;BME280;1571;52.524;14.104;2023-06-14T10:41:52;101334.78;;;18.97;66.38
3122;BME280;1571;52.524;14.104;2023-06-14T10:44:42;101327.59;;;18.76;64.87
3122;BME280;1571;52.524;14.104;2023-06-14T10:47:22;101328.81;;;19.53;64.13
3122;BME280;1571;52.524;14.104;2023-06-14T10:49:53;101324.72;;;19.49;63.70
3122;BME280;1571;52.524;14.104;2023-06-14T10:52:27;101328.78;;;18.83;64.33
3122;BME280;1571;52.524;14.104;2023-06-14T10:57:40;101325.47;;;19.10;64.14
3122;BME280;1571;52.524;14.104;2023-06-14T11:00:13;101311.97;;;19.51;63.14
3122;BME280;1571;52.524;14.104;2023-06-14T11:03:08;101306.47;;;20.11;61.50
3122;BME280;1571;52.524;14.104;2023-06-14T11:05:49;101312.44;;;19.95;61.10
3122;BME280;1571;52.524;14.104;2023-06-14T11:08:40;101289.50;;;20.38;60.21
3122;BME280;1571;52.524;14.104;2023-06-14T11:11:13;101310.28;;;19.50;60.67
3122;BME280;1571;52.524;14.104;2023-06-14T11:13:45;101307.72;;;19.39;61.60
3122;BME280;1571;52.524;14.104;2023-06-14T11:16:18;101296.69;;;20.00;60.97
3122;BME280;1571;52.524;14.104;2023-06-14T11:18:47;101291.97;;;20.12;60.38
3122;BME280;1571;52.524;14.104;2023-06-14T11:21:16;101279.78;;;20.65;58.34
3122;BME280;1571;52.524;14.104;2023-06-14T11:23:50;101276.41;;;20.63;57.82
3122;BME280;1571;52.524;14.104;2023-06-14T11:26:27;101272.97;;;21.16;57.52
3122;BME280;1571;52.524;14.104;2023-06-14T11:28:56;101282.44;;;20.27;58.76
3122;BME280;1571;52.524;14.104;2023-06-14T11:31:26;101271.69;;;20.55;57.72
3122;BME280;1571;52.524;14.104;2023-06-14T11:33:55;101262.13;;;21.26;56.37
3122;BME280;1571;52.524;14.104;2023-06-14T11:36:26;101273.13;;;20.96;56.93
3122;BME280;1571;52.524;14.104;2023-06-14T11:39:03;101275.75;;;20.78;57.43
3122;BME280;1571;52.524;14.104;2023-06-14T11:41:35;101274.81;;;20.60;57.27
3122;BME280;1571;52.524;14.104;2023-06-14T11:44:04;101275.41;;;20.64;56.87
3122;BME280;1571;52.524;14.104;2023-06-14T11:46:33;101269.22;;;20.81;55.69
3122;BME280;1571;52.524;14.104;2023-06-14T11:49:02;101269.84;;;20.55;56.66
3122;BME280;1571;52.524;14.104;2023-06-14T11:51:32;101273.34;;;20.38;57.09
3122;BME280;1571;52.524;14.104;2023-06-14T11:54:03;101278.72;;;20.38;57.82
3122;BME280;1571;52.524;14.104;2023-06-14T11:56:31;101266.72;;;20.97;56.89
3122;BME280;1571;52.524;14.104;2023-06-14T11:59:02;101264.47;;;20.93;55.39
3122;BME280;1571;52.524;14.104;2023-06-14T12:01:36;101240.06;;;22.10;54.14
3122;BME280;1571;52.524;14.104;2023-06-14T12:04:05;101256.09;;;21.14;55.09
3122;BME280;1571;52.524;14.104;2023-06-14T12:06:34;101254.41;;;21.31;54.21
3122;BME280;1571;52.524;14.104;2023-06-14T12:09:08;101243.75;;;21.83;53.09
3122;BME280;1571;52.524;14.104;2023-06-14T12:11:41;101249.44;;;21.54;54.63
3122;BME280;1571;52.524;14.104;2023-06-14T12:14:09;101238.38;;;21.65;52.98
3122;BME280;1571;52.524;14.104;2023-06-14T12:16:39;101240.22;;;21.29;53.66
3122;BME280;1571;52.524;14.104;2023-06-14T12:21:39;101227.09;;;21.70;51.85
3122;BME280;1571;52.524;14.104;2023-06-14T12:24:09;101216.66;;;22.45;51.03
3122;BME280;1571;52.524;14.104;2023-06-14T12:26:41;101224.78;;;21.75;50.97
3122;BME280;1571;52.524;14.104;2023-06-14T12:29:10;101216.31;;;21.96;51.14
3122;BME280;1571;52.524;14.104;2023-06-14T12:31:40;101212.00;;;22.29;50.67
3122;BME280;1571;52.524;14.104;2023-06-14T12:34:09;101209.22;;;21.95;50.53
3122;BME280;1571;52.524;14.104;2023-06-14T12:36:38;101215.84;;;22.27;50.58
3122;BME280;1571;52.524;14.104;2023-06-14T12:39:13;101203.13;;;22.53;50.22
3122;BME280;1571;52.524;14.104;2023-06-14T12:41:41;101208.09;;;23.09;49.57
3122;BME280;1571;52.524;14.104;2023-06-14T12:44:10;101198.88;;;22.93;49.54
3122;BME280;1571;52.524;14.104;2023-06-14T12:46:39;101205.34;;;22.58;50.33
3122;BME280;1571;52.524;14.104;2023-06-14T12:49:09;101202.91;;;22.89;49.56
3122;BME280;1571;52.524;14.104;2023-06-14T12:51:38;101208.03;;;21.97;50.88
3122;BME280;1571;52.524;14.104;2023-06-14T12:54:07;101206.13;;;22.42;50.54
3122;BME280;1571;52.524;14.104;2023-06-14T12:56:37;101201.84;;;22.65;49.85
3122;BME280;1571;52.524;14.104;2023-06-14T12:59:06;101197.63;;;22.63;50.13
3122;BME280;1571;52.524;14.104;2023-06-14T13:01:34;101201.34;;;22.36;50.59
3122;BME280;1571;52.524;14.104;2023-06-14T13:04:03;101200.84;;;22.32;50.85
3122;BME280;1571;52.524;14.104;2023-06-14T13:06:31;101185.50;;;22.92;49.22
3122;BME280;1571;52.524;14.104;2023-06-14T13:09:00;101192.88;;;23.16;49.45
3122;BME280;1571;52.524;14.104;2023-06-14T13:11:29;101182.59;;;22.85;48.18
3122;BME280;1571;52.524;14.104;2023-06-14T13:13:58;101170.59;;;22.79;47.30
3122;BME280;1571;52.524;14.104;2023-06-14T13:16:39;101177.53;;;22.82;46.99
3122;BME280;1571;52.524;14.104;2023-06-14T13:19:08;101176.25;;;23.02;47.45